Newburgh, Canada
Current Conditions -  °F | °C
As of 11:00 PM on Saturday 20 Dec 2014 (Local Time) from CYGK Reporting Station
Scattered Clouds Scattered Clouds  
Wind Chill: 13°   Ceiling: Unl
Heat Index: 19°   Visibility: 14mi
Dew Point: 14°   Wind: 5mph
Humidity: 80%   Direction: 30°NNE
Pressure: 30.31"   Gusts: NA
Location:  44.33°N, 76.87°W
Report Text: CYGK 210400Z 03004KT 14SM SCT110 M07/M10 A3031 RMK AC3 LAST STFD OBS/NEXT 211100 UTC SLP271
Loading
Personal Weather Stations






























Interactive Weather Map New forecast layout! Learn more

10-Day Weather Forecast

Advertisements
Track Severe Weather on mobile